DAOO

Details ICAO DAOO (ORN)
Name ES SENIA
Region Algeria
Timezone Africa/Algiers (UTC+1.0)
Plans Departing 141
Arriving 149
Stats Elevation 295 ft / 90 m (AMSL)
Location 35.623858° -0.621183°
Runways 1
Magnetic Variation 0.199° E
Sunrise 2018-05-27 04:51:39 UTC / 2018-05-27 05:51:39 Local
Sunset 2018-05-27 19:10:31 UTC / 2018-05-27 20:10:31 Local
Advertisement - Login to hide

Runways

ID Width Length Bearing (true) Bearing (mag) Surface Threshold Offset Overrun Length
07 148 ft / 45 m 10,006 ft / 3,050 m 67.06° 66.86° Asphalt 0 ft / 0 m 328 ft / 100 m
25 148 ft / 45 m 10,006 ft / 3,050 m 247.08° 246.88° Asphalt 196 ft / 60 m 0 ft / 0 m

Map

Weather


0- 5 10 15 20 25 30 35+ Temperature / ° C

Clouds and Precipitation
Forecast for 2018-05-27 00:00 UTC. Updated an hour ago

Ground ~20,000 ft ~40,000 ft Winds

METAR

DAOO 270000Z 00000KT CAVOK 18/13 Q1012

TAF

TAF DAOO 262300Z 2700/2724 VRB02KT 9999 FEW026 BECMG 2708/2710 26012KT SCT020 TEMPO 2712/2708 28018KT

Frequencies

Tower 118.10 MHz ORAN TWR
Approach 128.20 MHz ORAN APP
Tower 119.70 MHz ORAN TWR
Approach 121.10 MHz ORAN APP
Warning: Do not use this data for real-world aviation or navigation. No guarantee of current accuracy is given.